createdAt,value
2019-02-20T00:00:09.667Z,88.34
2019-02-20T00:00:50.050Z,88.43
2019-02-20T00:01:30.436Z,89.39
2019-02-20T00:02:10.822Z,89.48
2019-02-20T00:02:51.225Z,89.48
2019-02-20T00:03:31.633Z,90.05
2019-02-20T00:04:12.021Z,89
2019-02-20T00:04:52.443Z,89.29
2019-02-20T00:05:32.860Z,89
2019-02-20T00:06:13.260Z,89.58
2019-02-20T00:06:53.665Z,89.76
2019-02-20T00:07:34.060Z,89.48
2019-02-20T00:08:14.451Z,88.91
2019-02-20T00:08:54.849Z,88.24
2019-02-20T00:09:35.247Z,88.34
2019-02-20T00:10:15.645Z,88.34
2019-02-20T00:10:56.039Z,87.77
2019-02-20T00:11:36.443Z,89.1
2019-02-20T00:12:16.846Z,88.62
2019-02-20T00:12:57.267Z,89.2
2019-02-20T00:13:37.641Z,89.48
2019-02-20T00:14:18.074Z,89.2
2019-02-20T00:14:58.504Z,89.48
2019-02-20T00:15:38.894Z,89.29
2019-02-20T00:16:19.339Z,88.15
2019-02-20T00:16:59.727Z,88.06
2019-02-20T00:17:40.096Z,88.34
2019-02-20T00:18:20.512Z,88.34
2019-02-20T00:19:00.917Z,88.43
2019-02-20T00:19:41.362Z,88.53
2019-02-20T00:20:21.727Z,89.1
2019-02-20T00:21:02.169Z,89.48
2019-02-20T00:21:42.557Z,89.67
2019-02-20T00:22:22.948Z,89.58
2019-02-20T00:23:03.384Z,89.58
2019-02-20T00:23:43.763Z,89.48
2019-02-20T00:24:25.073Z,89.29
2019-02-20T00:25:05.479Z,88.53
2019-02-20T00:25:45.877Z,89.2
2019-02-20T00:26:26.279Z,89.48
2019-02-20T00:27:06.661Z,90.33
2019-02-20T00:27:47.088Z,89.48
2019-02-20T00:28:27.456Z,89.29
2019-02-20T00:29:07.844Z,89.58
2019-02-20T00:33:34.979Z,87.87
2019-02-20T00:34:29.255Z,88.34
2019-02-20T00:35:21.816Z,89.48
2019-02-20T00:36:13.718Z,88.91
2019-02-20T00:39:43.426Z,88.34
2019-02-20T00:40:35.387Z,89.48
2019-02-20T00:41:26.236Z,89.67
2019-02-20T00:43:53.503Z,89.76
2019-02-20T00:45:44.524Z,89.39
2019-02-20T00:46:24.765Z,88.81
2019-02-20T00:47:05.197Z,89.58
2019-02-20T00:47:45.615Z,90.24
2019-02-20T00:48:26.024Z,90.62
2019-02-20T00:49:06.444Z,90.24
2019-02-20T00:49:46.820Z,89.58
2019-02-20T00:50:27.244Z,89.2
2019-02-20T00:51:07.660Z,89.1
2019-02-20T00:51:48.217Z,89.58
2019-02-20T00:52:28.600Z,89.67
2019-02-20T00:53:09.020Z,88.91
2019-02-20T00:53:49.464Z,89.1
2019-02-20T00:54:29.812Z,89
2019-02-20T00:55:10.193Z,89.2
2019-02-20T00:55:50.610Z,89.2
2019-02-20T00:56:31.000Z,89.58
2019-02-20T00:57:11.414Z,89.76
2019-02-20T00:57:51.796Z,90.43
2019-02-20T00:58:32.213Z,89.67
2019-02-20T00:59:12.600Z,88.72
2019-02-20T00:59:53.007Z,89.39
2019-02-20T01:00:33.394Z,89.2
2019-02-20T01:01:13.813Z,88.53
2019-02-20T01:01:54.204Z,88.53
2019-02-20T01:02:34.582Z,88.34
2019-02-20T01:03:14.978Z,88.91
2019-02-20T01:03:55.379Z,89.2
2019-02-20T01:04:35.793Z,89.58
2019-02-20T01:05:16.178Z,89.48
2019-02-20T01:05:56.581Z,89.67
2019-02-20T01:06:37.011Z,90.43
2019-02-20T01:07:17.406Z,90.71
2019-02-20T01:07:57.819Z,90.33
2019-02-20T01:08:38.177Z,89.67
2019-02-20T01:09:18.567Z,89.2
2019-02-20T01:09:58.955Z,89.1
2019-02-20T01:10:39.357Z,88.15
2019-02-20T01:11:19.803Z,89.48
2019-02-20T01:12:00.159Z,89.39
2019-02-20T01:13:50.402Z,88.24
2019-02-20T01:14:30.587Z,88.24
2019-02-20T01:15:11.033Z,87.77
2019-02-20T01:15:51.385Z,88.24
2019-02-20T01:16:31.798Z,87.77
2019-02-20T01:17:12.188Z,87.58
2019-02-20T01:17:52.614Z,87.49
2019-02-20T01:18:32.978Z,87.39
2019-02-20T01:19:13.379Z,86.72
2019-02-20T01:19:53.778Z,87.39
2019-02-20T01:20:34.172Z,88.43
2019-02-20T01:21:14.591Z,88.34
2019-02-20T01:21:54.978Z,89.29
2019-02-20T01:23:48.816Z,89.1
2019-02-20T01:24:28.119Z,88.53
2019-02-20T01:25:08.527Z,87.96
2019-02-20T01:25:48.916Z,87.96
2019-02-20T01:26:29.330Z,88.43
2019-02-20T01:27:09.752Z,88.15
2019-02-20T01:27:50.111Z,88.15
2019-02-20T01:28:30.536Z,87.39
2019-02-20T01:29:10.920Z,87.39
2019-02-20T01:29:51.327Z,87.49
2019-02-20T01:30:31.723Z,87.3
2019-02-20T01:31:12.146Z,86.44
2019-02-20T01:31:52.515Z,86.54
2019-02-20T01:32:32.976Z,87.3
2019-02-20T01:33:13.360Z,88.53
2019-02-20T01:39:17.175Z,88.24
2019-02-20T01:40:05.539Z,88.24
2019-02-20T01:40:54.244Z,88.24
2019-02-20T01:41:42.400Z,88.53
2019-02-20T01:42:31.817Z,89.29
2019-02-20T01:43:20.110Z,89.1
2019-02-20T01:44:09.419Z,89.2
2019-02-20T01:44:58.780Z,89.48
2019-02-20T01:45:47.737Z,89.58
2019-02-20T01:46:35.080Z,89.39
2019-02-20T01:50:19.045Z,89.1
2019-02-20T01:51:08.137Z,89.06
2019-02-20T01:51:56.721Z,88.96
2019-02-20T01:52:47.736Z,89.72
2019-02-20T01:53:35.704Z,89.53
2019-02-20T01:56:05.592Z,89.91
2019-02-20T01:56:57.206Z,89.81
2019-02-20T01:57:44.340Z,90
2019-02-20T01:58:33.180Z,90.48
2019-02-20T01:59:21.753Z,89.39
2019-02-20T02:00:10.877Z,89.53
2019-02-20T02:01:03.719Z,90
2019-02-20T02:03:09.005Z,90.57
2019-02-20T02:03:57.473Z,89.91
2019-02-20T02:04:45.904Z,89.72
2019-02-20T02:05:34.687Z,90
2019-02-20T02:06:23.226Z,90
2019-02-20T02:07:11.993Z,90.29
2019-02-20T02:08:01.477Z,90.86
2019-02-20T02:08:49.515Z,90.48
2019-02-20T02:09:38.385Z,90.48
2019-02-20T02:10:27.710Z,90.48
2019-02-20T02:11:15.729Z,89.91
2019-02-20T02:12:06.694Z,90.52
2019-02-20T02:12:55.888Z,90.1
2019-02-20T02:13:50.199Z,91.19
2019-02-20T02:16:05.741Z,90.24
2019-02-20T02:16:56.610Z,90.24
2019-02-20T02:17:46.611Z,90.05
2019-02-20T02:18:35.246Z,89.58
2019-02-20T02:19:23.768Z,89.67
2019-02-20T02:20:12.525Z,89.48
2019-02-20T02:21:01.616Z,90.05
2019-02-20T02:21:50.057Z,90.19
2019-02-20T02:22:39.283Z,89.95
2019-02-20T02:23:28.727Z,89.95
2019-02-20T02:24:18.492Z,89.95
2019-02-20T02:26:26.420Z,90.05
2019-02-20T02:27:14.829Z,90.57
2019-02-20T02:28:03.785Z,90.95
2019-02-20T02:28:57.056Z,91.75
2019-02-20T02:29:51.040Z,92.04
2019-02-20T02:30:39.243Z,92.04
2019-02-20T02:31:28.977Z,89.95
2019-02-20T02:32:17.775Z,90.52
2019-02-20T02:33:07.256Z,90.05
2019-02-20T02:33:56.916Z,90.24
2019-02-20T02:34:44.610Z,89.2
2019-02-20T02:36:38.995Z,89.2
2019-02-20T02:37:31.371Z,89.48
2019-02-20T02:39:19.717Z,89.39
2019-02-20T02:39:57.725Z,89
2019-02-20T02:40:38.125Z,89
2019-02-20T02:41:18.521Z,89
2019-02-20T02:41:58.899Z,88.91
2019-02-20T02:42:39.287Z,89.48
2019-02-20T02:43:19.717Z,89.58
2019-02-20T02:44:00.073Z,89.29
2019-02-20T02:44:40.462Z,89.39
2019-02-20T02:45:20.835Z,89.48
2019-02-20T02:46:01.241Z,90.14
2019-02-20T02:46:41.671Z,90.52
2019-02-20T02:47:22.086Z,89.86
2019-02-20T02:48:02.438Z,90.24
2019-02-20T02:48:42.848Z,90.33
2019-02-20T02:49:23.256Z,90.62
2019-02-20T02:50:03.649Z,90.24
2019-02-20T02:50:44.053Z,90.62
2019-02-20T02:51:24.436Z,90.33
2019-02-20T02:52:04.853Z,91.94
2019-02-20T02:52:45.253Z,92.9
2019-02-20T02:53:30.551Z,91.47
2019-02-20T02:54:06.034Z,92.14
2019-02-20T02:54:46.459Z,90.05
2019-02-20T02:55:26.826Z,90.24
2019-02-20T02:56:07.232Z,89.76
2019-02-20T02:56:47.632Z,89.48
2019-02-20T02:57:28.056Z,89.86
2019-02-20T02:58:08.481Z,89.39
2019-02-20T02:58:48.874Z,90.9
2019-02-20T02:59:29.331Z,90.81
2019-02-20T03:00:09.651Z,90.05
2019-02-20T03:00:50.054Z,90.24
2019-02-20T03:01:30.454Z,90.9
2019-02-20T03:02:10.884Z,90.52
2019-02-20T03:02:51.270Z,91.38
2019-02-20T03:03:31.693Z,92.04
2019-02-20T03:04:12.133Z,91
2019-02-20T03:04:52.441Z,90.62
2019-02-20T03:05:32.848Z,90.14
2019-02-20T03:06:13.269Z,89.76
2019-02-20T03:06:53.690Z,90.05
2019-02-20T03:07:34.047Z,90.24
2019-02-20T03:08:14.453Z,91.56
2019-02-20T03:08:54.841Z,91.56
2019-02-20T03:09:35.269Z,91.28
2019-02-20T03:10:15.638Z,90.71
2019-02-20T03:10:56.064Z,90.52
2019-02-20T03:11:36.488Z,90.05
2019-02-20T03:12:16.869Z,91.19
2019-02-20T03:12:57.309Z,90.14
2019-02-20T03:13:37.670Z,90.14
2019-02-20T03:14:18.086Z,89.58
2019-02-20T03:14:58.477Z,90.43
2019-02-20T03:15:38.869Z,91.19
2019-02-20T03:16:19.295Z,92.23
2019-02-20T03:16:59.693Z,91.85
2019-02-20T03:17:40.074Z,91.56
2019-02-20T03:18:20.490Z,90.28
2019-02-20T03:19:00.871Z,90.66
2019-02-20T03:19:41.216Z,90.76
2019-02-20T03:20:21.624Z,89.05
2019-02-20T03:21:01.997Z,88.67
2019-02-20T03:21:42.427Z,88.76
2019-02-20T03:22:22.797Z,88.01
2019-02-20T03:23:03.195Z,88.57
2019-02-20T03:23:43.631Z,88.48
2019-02-20T03:24:24.002Z,87.91
2019-02-20T03:25:04.384Z,89.43
2019-02-20T03:25:44.758Z,89.81
2019-02-20T03:26:25.203Z,89.14
2019-02-20T03:27:05.583Z,88.67
2019-02-20T03:27:45.949Z,87.24
2019-02-20T03:28:26.313Z,87.05
2019-02-20T03:29:06.705Z,86.49
2019-02-20T03:29:47.102Z,88.67
2019-02-20T03:30:27.552Z,88.48
2019-02-20T03:31:07.910Z,88.01
2019-02-20T03:31:48.350Z,87.43
2019-02-20T03:32:28.744Z,87.91
2019-02-20T03:33:09.145Z,88.67
2019-02-20T03:33:49.567Z,89.14
2019-02-20T03:34:29.959Z,88.2
2019-02-20T03:35:10.379Z,88.29
2019-02-20T03:35:50.746Z,87.34
2019-02-20T03:36:31.179Z,87.53
2019-02-20T03:37:11.590Z,87.91
2019-02-20T03:37:51.999Z,86.77
2019-02-20T03:38:32.393Z,86.39
2019-02-20T03:39:12.755Z,86.3
2019-02-20T03:39:53.183Z,86.58
2019-02-20T03:40:33.561Z,86.87
2019-02-20T03:42:23.391Z,87.72
2019-02-20T03:43:10.508Z,87.43
2019-02-20T03:43:50.255Z,87.34
2019-02-20T03:44:30.662Z,87.53
2019-02-20T03:45:11.054Z,87.15
2019-02-20T03:45:51.468Z,88.1
2019-02-20T03:46:31.838Z,88.95
2019-02-20T03:47:12.252Z,88.39
2019-02-20T03:47:52.627Z,87.15
2019-02-20T03:48:33.034Z,86.2
2019-02-20T03:49:13.417Z,86.39
2019-02-20T03:49:53.775Z,87.43
2019-02-20T03:50:34.205Z,88.01
2019-02-20T03:51:14.582Z,88.57
2019-02-20T03:51:54.982Z,88.57
2019-02-20T03:52:35.410Z,88.2
2019-02-20T03:53:15.799Z,88.29
2019-02-20T03:53:56.222Z,88.01
2019-02-20T03:54:36.624Z,88.29
2019-02-20T03:55:17.062Z,88.29
2019-02-20T03:55:57.501Z,88.29
2019-02-20T03:56:37.827Z,89.24
2019-02-20T03:57:18.226Z,87.82
2019-02-20T03:57:58.686Z,87.82
2019-02-20T03:58:39.069Z,87.53
2019-02-20T03:59:19.485Z,88.57
2019-02-20T03:59:59.891Z,88.2
2019-02-20T04:00:40.258Z,88.67
2019-02-20T04:01:20.669Z,88.2
2019-02-20T04:02:01.077Z,89.53
2019-02-20T04:02:41.490Z,89.05
2019-02-20T04:03:21.892Z,89.53
2019-02-20T04:04:03.232Z,88.39
2019-02-20T04:04:43.631Z,88.29
2019-02-20T04:05:24.033Z,89.24
2019-02-20T04:06:04.463Z,88.29
2019-02-20T04:06:44.892Z,88.48
2019-02-20T04:07:25.326Z,89.05
2019-02-20T04:08:05.686Z,89.72
2019-02-20T04:08:46.070Z,88.76
2019-02-20T04:09:26.503Z,88.29
2019-02-20T04:10:09.048Z,88.1
2019-02-20T04:10:47.219Z,88.29
2019-02-20T04:11:27.637Z,89.53
2019-02-20T04:12:08.014Z,88.57
2019-02-20T04:12:48.451Z,88.39
2019-02-20T04:13:28.812Z,88.57
2019-02-20T04:14:09.230Z,88.01
2019-02-20T04:14:49.606Z,87.82
2019-02-20T04:15:30.014Z,88.2
2019-02-20T04:16:10.411Z,88.2
2019-02-20T04:16:50.840Z,88.1
2019-02-20T04:17:31.229Z,88.01
2019-02-20T04:18:11.626Z,88.2
2019-02-20T04:18:52.061Z,89.72
2019-02-20T04:19:32.486Z,88.95
2019-02-20T04:20:12.874Z,88.57
2019-02-20T04:20:53.303Z,88.1
2019-02-20T04:21:33.759Z,87.05
2019-02-20T04:22:14.108Z,86.77
2019-02-20T04:22:54.552Z,86.11
2019-02-20T04:23:34.946Z,87.91
2019-02-20T04:24:15.356Z,88.39
2019-02-20T04:24:55.790Z,87.91
2019-02-20T04:25:36.233Z,89.53
2019-02-20T04:26:16.626Z,88.67
2019-02-20T04:26:57.042Z,88.2
2019-02-20T05:11:15.079Z,99.99
2019-02-20T05:12:44.688Z,99.99
2019-02-20T05:13:26.030Z,99.99
2019-02-20T05:14:06.403Z,99.99
2019-02-20T05:14:46.810Z,99.99
2019-02-20T05:15:27.164Z,99.99
2019-02-20T05:16:07.563Z,99.99
2019-02-20T05:16:47.952Z,99.99
2019-02-20T05:17:28.379Z,99.99
2019-02-20T05:18:08.762Z,99.99
2019-02-20T05:18:49.164Z,99.99
2019-02-20T05:19:29.615Z,99.54
2019-02-20T05:20:11.802Z,98.49
2019-02-20T05:20:52.253Z,98.59
2019-02-20T05:21:32.600Z,99.44
2019-02-20T05:22:13.002Z,98.78
2019-02-20T05:22:53.407Z,98.4
2019-02-20T05:23:33.794Z,98.87
2019-02-20T05:24:23.961Z,98.4
2019-02-20T05:24:54.667Z,98.49
2019-02-20T05:25:35.005Z,97.45
2019-02-20T05:26:15.447Z,98.02
2019-02-20T05:26:55.823Z,98.3
2019-02-20T05:27:36.228Z,97.92
2019-02-20T05:28:16.657Z,98.11
2019-02-20T05:28:57.014Z,97.26
2019-02-20T05:29:37.379Z,97.07
2019-02-20T05:30:17.764Z,98.97
2019-02-20T05:30:58.197Z,98.26
2019-02-20T05:33:00.037Z,95.98
2019-02-20T05:33:49.074Z,95.22
2019-02-20T05:34:37.776Z,94.37
2019-02-20T05:35:26.180Z,93.23
2019-02-20T05:37:54.056Z,92.28
2019-02-20T05:38:44.572Z,92.09
2019-02-20T05:39:40.548Z,92.18
2019-02-20T05:41:28.750Z,92.09
2019-02-20T05:42:18.031Z,93.32
2019-02-20T05:43:07.999Z,93.51
2019-02-20T05:43:57.549Z,92.85
2019-02-20T05:44:38.986Z,93.6
2019-02-20T05:45:20.129Z,93.13
2019-02-20T05:46:00.548Z,92.66
2019-02-20T05:46:41.025Z,92.94
2019-02-20T05:47:21.600Z,92.66
2019-02-20T05:48:02.117Z,91.8
2019-02-20T05:48:43.251Z,92.56
2019-02-20T05:49:24.178Z,92.28
2019-02-20T05:50:05.603Z,92.09
2019-02-20T05:50:46.358Z,91.24
2019-02-20T05:51:26.891Z,91.8
2019-02-20T05:52:07.517Z,91.61
2019-02-20T05:52:49.435Z,91.89
2019-02-20T05:53:30.625Z,91.24
2019-02-20T05:54:10.783Z,91.33
2019-02-20T05:54:51.549Z,91.33
2019-02-20T05:55:32.017Z,90.85
2019-02-20T05:56:12.617Z,91.42
2019-02-20T05:56:53.175Z,92.09
2019-02-20T05:57:36.433Z,91.89
2019-02-20T05:58:15.413Z,93.13
2019-02-20T05:58:56.110Z,92.47
2019-02-20T05:59:37.700Z,93.23
2019-02-20T06:00:19.756Z,92.66
2019-02-20T06:01:00.278Z,93.13
2019-02-20T06:01:40.745Z,92.85
2019-02-20T06:02:21.167Z,93.51
2019-02-20T06:03:01.988Z,93.41
2019-02-20T06:03:42.748Z,93.32
2019-02-20T06:04:23.407Z,93.13
2019-02-20T06:05:03.775Z,92.85
2019-02-20T06:05:44.505Z,93.32
2019-02-20T06:06:24.985Z,93.7
2019-02-20T06:07:05.234Z,93.41
2019-02-20T06:07:45.835Z,93.8
2019-02-20T06:08:26.259Z,93.99
2019-02-20T06:09:08.054Z,94.56
2019-02-20T06:09:49.698Z,94.37
2019-02-20T06:10:30.747Z,95.22
2019-02-20T06:11:14.598Z,94.93
2019-02-20T06:11:52.213Z,94.27
2019-02-20T06:12:32.804Z,92.47
2019-02-20T06:13:14.015Z,92.75
2019-02-20T06:13:54.417Z,91.8
2019-02-20T06:14:35.399Z,92.85
2019-02-20T06:15:16.165Z,92.75
2019-02-20T06:15:56.677Z,92.09
2019-02-20T06:16:37.430Z,91.61
2019-02-20T06:17:17.941Z,90.57
2019-02-20T06:17:59.345Z,90.66
2019-02-20T06:18:41.681Z,90.66
2019-02-20T06:19:27.350Z,90.47
2019-02-20T06:20:07.886Z,90.38
2019-02-20T06:20:48.485Z,90.38
2019-02-20T06:21:29.245Z,90.47
2019-02-20T06:22:09.977Z,91.33
2019-02-20T06:22:50.645Z,91.33
2019-02-20T06:23:31.354Z,91.33
2019-02-20T06:24:12.074Z,91.33
2019-02-20T06:24:52.836Z,93.04
2019-02-20T06:25:33.274Z,92.09
2019-02-20T06:26:13.758Z,91.52
2019-02-20T06:26:54.589Z,91.24
2019-02-20T06:29:45.773Z,93.23
2019-02-20T06:30:34.990Z,93.04
2019-02-20T06:35:45.643Z,93.04
2019-02-20T06:36:28.001Z,93.56
2019-02-20T06:37:08.397Z,94.27
2019-02-20T06:37:48.783Z,94.18
2019-02-20T06:38:29.237Z,93.51
2019-02-20T06:39:09.610Z,92.85
2019-02-20T06:39:50.049Z,94.56
2019-02-20T06:40:30.435Z,93.51
2019-02-20T06:41:10.888Z,92.47
2019-02-20T06:41:51.306Z,93.13
2019-02-20T06:42:31.725Z,93.23
2019-02-20T06:43:12.741Z,91.99
2019-02-20T06:43:53.166Z,92.75
2019-02-20T06:44:33.791Z,94.08
2019-02-20T06:45:14.950Z,92.94
2019-02-20T06:45:55.289Z,92.85
2019-02-20T06:46:36.469Z,93.04
2019-02-20T06:47:17.703Z,93.32
2019-02-20T06:47:58.663Z,93.23
2019-02-20T06:48:39.396Z,92.66
2019-02-20T06:49:20.131Z,93.13
2019-02-20T06:50:01.927Z,91.89
2019-02-20T06:50:43.043Z,93.51
2019-02-20T06:51:25.385Z,93.04
2019-02-20T06:52:08.984Z,93.41
2019-02-20T06:52:49.127Z,93.13
2019-02-20T06:53:30.390Z,94.56
2019-02-20T06:54:11.424Z,93.7
2019-02-20T06:54:54.045Z,93.8
2019-02-20T06:55:33.487Z,93.6
2019-02-20T06:56:14.289Z,92.85
2019-02-20T06:56:54.888Z,92.94
2019-02-20T06:57:36.131Z,93.32
2019-02-20T06:58:17.641Z,92.66
2019-02-20T06:58:58.390Z,92.94
2019-02-20T06:59:39.010Z,92.37
2019-02-20T07:00:19.829Z,92.66
2019-02-20T07:01:01.906Z,92.75
2019-02-20T07:01:43.097Z,92.66
2019-02-20T07:02:24.421Z,92.85
2019-02-20T07:03:05.447Z,93.32
2019-02-20T07:11:30.444Z,93.8
2019-02-20T07:12:10.119Z,93.6
2019-02-20T07:12:51.700Z,92.94
2019-02-20T07:13:31.386Z,93.04
2019-02-20T07:14:12.626Z,93.32
2019-02-20T07:14:54.110Z,92.75
2019-02-20T07:15:34.178Z,92.85
2019-02-20T07:16:14.854Z,91.52
2019-02-20T07:16:56.574Z,91.24
2019-02-20T07:17:36.631Z,91.42
2019-02-20T07:18:17.139Z,91.47
2019-02-20T07:18:59.771Z,90.9
2019-02-20T07:19:39.707Z,90.61
2019-02-20T07:20:19.950Z,90.42
2019-02-20T07:21:02.045Z,91.19
2019-02-20T07:21:43.063Z,90.42
2019-02-20T07:22:24.053Z,90.61
2019-02-20T07:23:05.070Z,90.52
2019-02-20T07:23:44.982Z,90.33
2019-02-20T07:24:25.910Z,89.47
2019-02-20T07:25:06.718Z,89.28
2019-02-20T07:25:48.159Z,89.57
2019-02-20T07:26:29.046Z,89.57
2019-02-20T07:27:09.494Z,89.38
2019-02-20T07:27:50.330Z,89.09
2019-02-20T07:28:31.569Z,88.34
2019-02-20T07:29:12.791Z,88.15
2019-02-20T07:29:52.257Z,87.86
2019-02-20T07:30:33.169Z,87.95
2019-02-20T07:31:13.920Z,87.57
2019-02-20T07:31:54.298Z,87.52
2019-02-20T07:32:35.204Z,87.43
2019-02-20T07:33:15.584Z,87.14
2019-02-20T07:33:56.133Z,87.05
2019-02-20T07:34:36.687Z,87.05
2019-02-20T07:35:17.051Z,86.47
2019-02-20T07:35:58.603Z,86.1
2019-02-20T07:36:40.162Z,86.47
2019-02-20T07:37:20.173Z,86.19
2019-02-20T07:38:00.862Z,86.29
2019-02-20T07:38:41.390Z,86.67
2019-02-20T07:39:22.318Z,85.62
2019-02-20T07:40:05.128Z,85.81
2019-02-20T07:40:45.966Z,85.43
2019-02-20T07:41:27.272Z,84.86
2019-02-20T07:42:08.058Z,84.95
2019-02-20T07:42:48.772Z,85.05
2019-02-20T07:43:30.655Z,84.86
2019-02-20T07:44:11.501Z,85.28
2019-02-20T07:44:51.856Z,85.1
2019-02-20T07:45:33.053Z,84.24
2019-02-20T07:46:13.943Z,83.48
2019-02-20T07:46:54.990Z,83.29
2019-02-20T07:47:36.584Z,83.86
2019-02-20T07:48:16.466Z,82.38
2019-02-20T07:48:57.467Z,81.81
2019-02-20T07:49:40.650Z,81.43
2019-02-20T07:50:21.583Z,81.52
2019-02-20T07:51:01.481Z,81.62
2019-02-20T07:51:41.978Z,81.05
2019-02-20T07:52:23.072Z,80.38
2019-02-20T07:53:05.065Z,79.33
2019-02-20T07:53:44.985Z,79.24
2019-02-20T07:54:29.221Z,79.09
2019-02-20T07:55:13.112Z,78.61
2019-02-20T07:55:49.232Z,78.23
2019-02-20T07:56:30.539Z,77.66
2019-02-20T07:57:10.446Z,77.76
2019-02-20T07:57:51.609Z,77.09
2019-02-20T07:58:31.458Z,77.09
2019-02-20T07:59:12.055Z,77.19
2019-02-20T07:59:52.429Z,76.9
2019-02-20T08:00:32.843Z,76.52
2019-02-20T08:01:14.041Z,76.14
2019-02-20T08:01:53.702Z,75.6
2019-02-20T08:02:34.132Z,75.6
2019-02-20T08:03:15.462Z,74.94
2019-02-20T08:03:55.919Z,75.04
2019-02-20T08:04:37.924Z,75.04
2019-02-20T08:05:18.444Z,75.04
2019-02-20T08:05:59.618Z,75.7
2019-02-20T08:06:40.060Z,75.7
2019-02-20T08:07:21.248Z,75.7
2019-02-20T08:08:01.398Z,75.42
2019-02-20T08:08:41.528Z,75.04
2019-02-20T08:09:23.276Z,74.84
2019-02-20T08:10:03.675Z,74.65
2019-02-20T08:12:18.642Z,74.37
2019-02-20T08:13:01.067Z,74.56
2019-02-20T08:13:41.510Z,74.56
2019-02-20T08:16:26.910Z,73.99
2019-02-20T08:17:07.516Z,74.56
2019-02-20T08:17:48.527Z,75.23
2019-02-20T08:18:28.420Z,75.13
2019-02-20T08:19:08.901Z,75.04
2019-02-20T08:19:51.017Z,75.13
2019-02-20T08:20:31.518Z,74.56
2019-02-20T08:21:11.906Z,73.89
2019-02-20T08:21:52.365Z,73.13
2019-02-20T08:22:33.591Z,73.32
2019-02-20T08:23:13.673Z,72.85
2019-02-20T08:23:54.635Z,73.26
2019-02-20T08:24:35.066Z,73.17
2019-02-20T08:25:22.409Z,72.21
2019-02-20T08:25:56.152Z,71.64
2019-02-20T08:26:36.609Z,71.17
2019-02-20T08:27:17.027Z,71.17
2019-02-20T08:27:57.616Z,70.63
2019-02-20T08:28:38.031Z,70.44
2019-02-20T08:29:18.429Z,70.34
2019-02-20T08:29:58.869Z,70.34
2019-02-20T08:30:39.244Z,69.96
2019-02-20T08:31:19.719Z,69.87
2019-02-20T08:32:00.106Z,69.62
2019-02-20T08:32:40.529Z,69.23
2019-02-20T08:33:20.984Z,67.9
2019-02-20T08:34:01.406Z,67.42
2019-02-20T08:34:41.828Z,67.42
2019-02-20T08:35:22.295Z,66.66
2019-02-20T08:36:02.753Z,66.98
2019-02-20T08:36:43.111Z,66.38
2019-02-20T08:37:23.548Z,66.12
2019-02-20T08:38:04.035Z,65.83
2019-02-20T08:38:44.471Z,65.36
2019-02-20T08:39:24.879Z,65.45
2019-02-20T08:40:05.467Z,64.91
2019-02-20T08:40:45.996Z,64.25
2019-02-20T08:41:26.454Z,63.67
2019-02-20T08:42:08.335Z,63.29
2019-02-20T08:46:40.511Z,60.3
2019-02-20T08:47:20.958Z,60.2
2019-02-20T08:48:01.327Z,60.1
2019-02-20T08:54:40.996Z,56.27
2019-02-20T08:55:22.281Z,55.41
2019-02-20T08:56:02.426Z,55.22
2019-02-20T08:56:42.862Z,54.86
2019-02-20T08:57:23.268Z,54.19
2019-02-20T08:58:03.908Z,54.57
2019-02-20T08:58:44.295Z,54.48
2019-02-20T08:59:24.713Z,53.62
2019-02-20T09:00:05.101Z,53.83
2019-02-20T09:00:45.659Z,53.45
2019-02-20T09:01:26.100Z,53.45
2019-02-20T09:02:06.430Z,53.26
2019-02-20T09:02:46.988Z,53.16
2019-02-20T09:03:27.456Z,53.64
2019-02-20T09:04:07.922Z,53.36
2019-02-20T09:04:48.355Z,53.16
2019-02-20T09:05:28.794Z,53.36
2019-02-20T09:06:09.159Z,53.45
2019-02-20T09:06:49.856Z,53.55
2019-02-20T09:07:30.319Z,53.28
2019-02-20T09:08:10.717Z,53.38
2019-02-20T09:08:51.159Z,53.28
2019-02-20T09:09:32.010Z,53.38
2019-02-20T09:10:12.370Z,53.19
2019-02-20T09:10:52.846Z,52.91
2019-02-20T09:11:33.313Z,53.28
2019-02-20T09:12:13.741Z,52.52
2019-02-20T09:15:36.773Z,51.78
2019-02-20T09:16:16.963Z,51.49
2019-02-20T09:16:59.376Z,51.68
2019-02-20T09:17:39.880Z,51.23
2019-02-20T09:18:22.021Z,50.94
2019-02-20T09:19:02.482Z,50.84
2019-02-20T09:19:42.946Z,50.46
2019-02-20T09:20:23.399Z,50.65
2019-02-20T09:21:03.918Z,50.68
2019-02-20T09:21:48.132Z,50.65
2019-02-20T09:22:30.458Z,51.42
2019-02-20T09:23:11.744Z,50.65
2019-02-20T09:23:56.897Z,50.78
2019-02-20T09:24:37.316Z,50.39
2019-02-20T09:25:20.010Z,50.49
2019-02-20T09:25:58.220Z,49.82
2019-02-20T09:26:38.639Z,49.72
2019-02-20T09:27:19.078Z,50.03
2019-02-20T09:28:00.208Z,49.65
2019-02-20T09:28:41.506Z,48.61
2019-02-20T09:29:21.661Z,47.46
2019-02-20T09:30:02.291Z,46.33
2019-02-20T09:30:43.057Z,45.28
2019-02-20T09:31:23.537Z,44.91
2019-02-20T09:32:04.007Z,44.53
2019-02-20T09:32:44.481Z,44.14
2019-02-20T09:33:24.862Z,44.05
2019-02-20T09:34:05.295Z,43.49
2019-02-20T09:34:47.552Z,42.91
2019-02-20T09:35:31.663Z,42.72
2019-02-20T09:36:12.092Z,42.91
2019-02-20T09:36:52.449Z,42.8
2019-02-20T09:37:32.849Z,42.99
2019-02-20T09:38:13.348Z,43.28
2019-02-20T09:38:53.809Z,43.28
2019-02-20T09:39:34.281Z,43.37
2019-02-20T09:40:14.705Z,43.37
2019-02-20T09:40:55.060Z,43.35
2019-02-20T09:41:35.558Z,43.26
2019-02-20T09:42:15.977Z,42.89
2019-02-20T09:42:56.451Z,43.37
2019-02-20T09:43:36.851Z,43.28
2019-02-20T09:44:17.274Z,43.18
2019-02-20T09:44:57.740Z,43.28
2019-02-20T09:45:41.824Z,42.22
2019-02-20T09:46:18.705Z,41.83
2019-02-20T09:46:59.138Z,41.26
2019-02-20T09:47:39.539Z,41.38
2019-02-20T09:48:20.031Z,41.47
2019-02-20T09:49:00.437Z,41.28
2019-02-20T09:49:40.839Z,41.18
2019-02-20T09:50:22.850Z,40.72
2019-02-20T09:51:03.365Z,40.81
2019-02-20T09:51:43.757Z,40.24
2019-02-20T09:55:18.148Z,40.03
2019-02-20T09:55:58.396Z,40.03
2019-02-20T09:56:38.770Z,41.45
2019-02-20T09:57:19.266Z,41.93
2019-02-20T09:57:59.622Z,42.8
2019-02-20T09:58:40.041Z,42.99
2019-02-20T09:59:20.443Z,42.82
2019-02-20T10:00:00.947Z,42.43
2019-02-20T10:00:41.336Z,42.91
2019-02-20T10:01:22.002Z,42.53
2019-02-20T10:02:02.325Z,41.66
2019-02-20T10:02:42.927Z,41.38
2019-02-20T10:03:23.224Z,41.55
2019-02-20T10:04:03.693Z,42.41
2019-02-20T10:04:44.050Z,42.14
2019-02-20T10:05:24.486Z,41.47
2019-02-20T10:06:04.854Z,42.63
2019-02-20T10:06:45.485Z,41.38
2019-02-20T10:08:46.394Z,41.16
2019-02-20T10:09:32.939Z,41.55
2019-02-20T10:10:11.485Z,42.41
2019-02-20T10:10:51.982Z,42.7
2019-02-20T10:11:32.404Z,42.72
2019-02-20T10:12:12.853Z,41.76
2019-02-20T10:12:53.230Z,41.47
2019-02-20T10:13:33.649Z,41.28
2019-02-20T10:14:16.133Z,41.39
2019-02-20T10:14:57.829Z,41.2
2019-02-20T10:15:38.181Z,40.43
2019-02-20T10:16:18.721Z,40.43
2019-02-20T10:16:59.821Z,40.24
2019-02-20T10:17:39.443Z,40.63
2019-02-20T10:18:19.932Z,42.07
2019-02-20T10:19:03.327Z,42.36
2019-02-20T10:19:43.816Z,40.43
2019-02-20T10:20:24.276Z,40.45
2019-02-20T10:21:04.740Z,40.26
2019-02-20T10:21:45.197Z,40.55
2019-02-20T10:22:25.616Z,41.32
2019-02-20T10:23:06.083Z,40.86
2019-02-20T10:23:46.429Z,40.37
2019-02-20T10:24:26.865Z,39.61
2019-02-20T10:25:07.346Z,41.05
2019-02-20T10:25:47.844Z,39.53
2019-02-20T10:26:37.132Z,38.76
2019-02-20T10:27:20.816Z,38.85
2019-02-20T10:28:04.069Z,38.08
2019-02-20T11:07:03.691Z,45.21
2019-02-20T11:07:45.706Z,45.5
2019-02-20T11:08:26.497Z,46.09
2019-02-20T11:09:06.547Z,46.19
2019-02-20T11:09:52.109Z,45.71
2019-02-20T11:10:34.923Z,45.52
2019-02-20T11:11:16.929Z,45.23
2019-02-20T11:12:02.957Z,44.75
2019-02-20T11:12:45.405Z,44.84
2019-02-20T11:13:28.582Z,45.04
2019-02-20T11:14:09.014Z,45.61
2019-02-20T11:14:52.021Z,45.52
2019-02-20T11:15:37.178Z,45.23
2019-02-20T11:16:17.614Z,45.23
2019-02-20T11:16:57.901Z,45.54
2019-02-20T11:17:38.556Z,45.45
2019-02-20T11:18:27.590Z,44.96
2019-02-20T11:19:10.774Z,44.58
2019-02-20T11:19:51.092Z,43.71
2019-02-20T11:20:34.308Z,44.2
2019-02-20T11:21:16.537Z,43.71
2019-02-20T11:22:00.550Z,44.2
2019-02-20T11:22:42.072Z,44.17
2019-02-20T11:23:26.206Z,44.38
2019-02-20T11:24:10.191Z,44.27
2019-02-20T11:24:50.561Z,44.94
2019-02-20T11:25:31.330Z,45.42
2019-02-20T11:26:17.749Z,45.23
2019-02-20T11:26:54.934Z,45.52
2019-02-20T11:27:34.879Z,45.42
2019-02-20T11:28:17.120Z,44.65
2019-02-20T11:28:59.437Z,44.27